sensor_id;sensor_type;location;lat;lon;timestamp;P1;durP1;ratioP1;P2;durP2;ratioP2
3941;SDS011;1985;48.592;8.850;2023-12-04T00:01:13;30.45;;;14.90;;
3941;SDS011;1985;48.592;8.850;2023-12-04T00:03:39;30.75;;;14.65;;
3941;SDS011;1985;48.592;8.850;2023-12-04T00:06:05;32.00;;;15.10;;
3941;SDS011;1985;48.592;8.850;2023-12-04T00:08:32;34.78;;;15.52;;
3941;SDS011;1985;48.592;8.850;2023-12-04T00:10:57;27.40;;;12.60;;
3941;SDS011;1985;48.592;8.850;2023-12-04T00:13:23;27.88;;;12.77;;
3941;SDS011;1985;48.592;8.850;2023-12-04T00:15:49;24.00;;;12.45;;
3941;SDS011;1985;48.592;8.850;2023-12-04T00:18:14;22.60;;;10.73;;
3941;SDS011;1985;48.592;8.850;2023-12-04T00:20:40;24.08;;;12.63;;
3941;SDS011;1985;48.592;8.850;2023-12-04T00:23:06;26.45;;;13.32;;
3941;SDS011;1985;48.592;8.850;2023-12-04T00:25:31;24.40;;;11.35;;
3941;SDS011;1985;48.592;8.850;2023-12-04T00:27:57;24.37;;;12.10;;
3941;SDS011;1985;48.592;8.850;2023-12-04T00:30:23;23.30;;;11.20;;
3941;SDS011;1985;48.592;8.850;2023-12-04T00:32:48;38.23;;;12.87;;
3941;SDS011;1985;48.592;8.850;2023-12-04T00:35:14;31.13;;;15.50;;
3941;SDS011;1985;48.592;8.850;2023-12-04T00:37:40;33.70;;;15.50;;
3941;SDS011;1985;48.592;8.850;2023-12-04T00:40:05;32.73;;;15.07;;
3941;SDS011;1985;48.592;8.850;2023-12-04T00:42:33;32.45;;;15.07;;
3941;SDS011;1985;48.592;8.850;2023-12-04T00:44:58;31.03;;;15.03;;
3941;SDS011;1985;48.592;8.850;2023-12-04T00:47:24;33.13;;;15.67;;
3941;SDS011;1985;48.592;8.850;2023-12-04T00:49:50;30.60;;;14.73;;
3941;SDS011;1985;48.592;8.850;2023-12-04T00:52:15;29.47;;;14.30;;
3941;SDS011;1985;48.592;8.850;2023-12-04T00:54:41;31.40;;;13.83;;
3941;SDS011;1985;48.592;8.850;2023-12-04T00:57:07;27.80;;;13.30;;
3941;SDS011;1985;48.592;8.850;2023-12-04T00:59:33;25.25;;;12.00;;
3941;SDS011;1985;48.592;8.850;2023-12-04T01:01:59;28.67;;;12.43;;
3941;SDS011;1985;48.592;8.850;2023-12-04T01:04:24;24.63;;;12.80;;
3941;SDS011;1985;48.592;8.850;2023-12-04T01:06:50;23.05;;;12.07;;
3941;SDS011;1985;48.592;8.850;2023-12-04T01:09:17;25.63;;;12.60;;
3941;SDS011;1985;48.592;8.850;2023-12-04T01:11:43;27.37;;;12.93;;
3941;SDS011;1985;48.592;8.850;2023-12-04T01:14:08;26.00;;;12.17;;
3941;SDS011;1985;48.592;8.850;2023-12-04T01:16:34;25.33;;;12.17;;
3941;SDS011;1985;48.592;8.850;2023-12-04T01:19:00;24.37;;;11.73;;
3941;SDS011;1985;48.592;8.850;2023-12-04T01:21:25;20.87;;;10.43;;
3941;SDS011;1985;48.592;8.850;2023-12-04T01:23:51;23.50;;;11.20;;
3941;SDS011;1985;48.592;8.850;2023-12-04T01:26:16;29.08;;;12.02;;
3941;SDS011;1985;48.592;8.850;2023-12-04T01:28:42;25.48;;;11.75;;
3941;SDS011;1985;48.592;8.850;2023-12-04T01:31:08;21.40;;;11.00;;
3941;SDS011;1985;48.592;8.850;2023-12-04T01:33:34;21.55;;;10.63;;
3941;SDS011;1985;48.592;8.850;2023-12-04T01:36:00;26.27;;;12.75;;
3941;SDS011;1985;48.592;8.850;2023-12-04T01:38:26;25.25;;;12.00;;
3941;SDS011;1985;48.592;8.850;2023-12-04T01:40:52;25.20;;;11.60;;
3941;SDS011;1985;48.592;8.850;2023-12-04T01:43:17;23.90;;;12.17;;
3941;SDS011;1985;48.592;8.850;2023-12-04T01:45:43;24.30;;;12.10;;
3941;SDS011;1985;48.592;8.850;2023-12-04T01:48:10;26.17;;;12.48;;
3941;SDS011;1985;48.592;8.850;2023-12-04T01:50:38;26.40;;;12.77;;
3941;SDS011;1985;48.592;8.850;2023-12-04T01:53:04;25.58;;;12.70;;
3941;SDS011;1985;48.592;8.850;2023-12-04T01:55:31;26.52;;;12.80;;
3941;SDS011;1985;48.592;8.850;2023-12-04T01:57:57;23.38;;;11.57;;
3941;SDS011;1985;48.592;8.850;2023-12-04T02:00:24;24.38;;;12.52;;
3941;SDS011;1985;48.592;8.850;2023-12-04T02:02:50;23.20;;;11.07;;
3941;SDS011;1985;48.592;8.850;2023-12-04T02:05:16;25.23;;;11.73;;
3941;SDS011;1985;48.592;8.850;2023-12-04T02:07:42;25.00;;;12.02;;
3941;SDS011;1985;48.592;8.850;2023-12-04T02:10:08;21.90;;;10.90;;
3941;SDS011;1985;48.592;8.850;2023-12-04T02:12:34;22.25;;;11.40;;
3941;SDS011;1985;48.592;8.850;2023-12-04T02:15:00;25.70;;;11.60;;
3941;SDS011;1985;48.592;8.850;2023-12-04T02:17:26;24.85;;;11.50;;
3941;SDS011;1985;48.592;8.850;2023-12-04T02:19:53;25.42;;;12.40;;
3941;SDS011;1985;48.592;8.850;2023-12-04T02:22:19;26.57;;;12.53;;
3941;SDS011;1985;48.592;8.850;2023-12-04T02:24:45;23.70;;;11.00;;
3941;SDS011;1985;48.592;8.850;2023-12-04T02:29:44;23.75;;;11.80;;
3941;SDS011;1985;48.592;8.850;2023-12-04T02:32:15;25.60;;;12.48;;
3941;SDS011;1985;48.592;8.850;2023-12-04T02:34:44;29.02;;;11.52;;
3941;SDS011;1985;48.592;8.850;2023-12-04T02:37:12;25.45;;;10.85;;
3941;SDS011;1985;48.592;8.850;2023-12-04T02:39:39;24.80;;;11.00;;
3941;SDS011;1985;48.592;8.850;2023-12-04T02:42:06;22.23;;;10.10;;
3941;SDS011;1985;48.592;8.850;2023-12-04T02:44:31;23.27;;;10.93;;
3941;SDS011;1985;48.592;8.850;2023-12-04T02:46:58;24.02;;;10.70;;
3941;SDS011;1985;48.592;8.850;2023-12-04T02:49:24;25.25;;;10.88;;
3941;SDS011;1985;48.592;8.850;2023-12-04T02:51:49;24.17;;;11.35;;
3941;SDS011;1985;48.592;8.850;2023-12-04T02:54:15;20.92;;;10.38;;
3941;SDS011;1985;48.592;8.850;2023-12-04T02:56:40;21.70;;;11.00;;
3941;SDS011;1985;48.592;8.850;2023-12-04T02:59:06;23.60;;;11.10;;
3941;SDS011;1985;48.592;8.850;2023-12-04T03:01:32;23.60;;;11.03;;
3941;SDS011;1985;48.592;8.850;2023-12-04T03:03:57;23.67;;;10.67;;
3941;SDS011;1985;48.592;8.850;2023-12-04T03:06:23;22.17;;;10.93;;
3941;SDS011;1985;48.592;8.850;2023-12-04T03:08:49;25.80;;;11.07;;
3941;SDS011;1985;48.592;8.850;2023-12-04T03:11:14;24.17;;;11.53;;
3941;SDS011;1985;48.592;8.850;2023-12-04T03:13:40;27.58;;;11.95;;
3941;SDS011;1985;48.592;8.850;2023-12-04T03:16:05;23.30;;;12.07;;
3941;SDS011;1985;48.592;8.850;2023-12-04T03:18:39;22.20;;;11.10;;
3941;SDS011;1985;48.592;8.850;2023-12-04T03:21:06;21.50;;;10.80;;
3941;SDS011;1985;48.592;8.850;2023-12-04T03:23:31;24.77;;;11.48;;
3941;SDS011;1985;48.592;8.850;2023-12-04T03:25:57;24.27;;;10.40;;
3941;SDS011;1985;48.592;8.850;2023-12-04T03:28:23;24.10;;;10.30;;
3941;SDS011;1985;48.592;8.850;2023-12-04T03:30:48;25.60;;;12.10;;
3941;SDS011;1985;48.592;8.850;2023-12-04T03:33:14;22.13;;;10.60;;
3941;SDS011;1985;48.592;8.850;2023-12-04T03:35:39;22.03;;;10.13;;
3941;SDS011;1985;48.592;8.850;2023-12-04T03:38:05;21.67;;;9.90;;
3941;SDS011;1985;48.592;8.850;2023-12-04T03:40:31;22.10;;;10.53;;
3941;SDS011;1985;48.592;8.850;2023-12-04T03:42:57;24.07;;;10.33;;
3941;SDS011;1985;48.592;8.850;2023-12-04T03:45:22;24.03;;;11.50;;
3941;SDS011;1985;48.592;8.850;2023-12-04T03:47:48;22.73;;;10.70;;
3941;SDS011;1985;48.592;8.850;2023-12-04T03:50:13;21.37;;;9.57;;
3941;SDS011;1985;48.592;8.850;2023-12-04T03:52:40;25.00;;;11.27;;
3941;SDS011;1985;48.592;8.850;2023-12-04T03:55:06;24.93;;;12.10;;
3941;SDS011;1985;48.592;8.850;2023-12-04T03:57:33;24.70;;;10.93;;
3941;SDS011;1985;48.592;8.850;2023-12-04T03:59:59;27.95;;;11.75;;
3941;SDS011;1985;48.592;8.850;2023-12-04T04:02:24;22.33;;;10.43;;
3941;SDS011;1985;48.592;8.850;2023-12-04T04:04:50;25.60;;;11.07;;
3941;SDS011;1985;48.592;8.850;2023-12-04T04:07:16;23.13;;;11.37;;
3941;SDS011;1985;48.592;8.850;2023-12-04T04:09:42;23.65;;;10.63;;
3941;SDS011;1985;48.592;8.850;2023-12-04T04:12:08;25.20;;;11.40;;
3941;SDS011;1985;48.592;8.850;2023-12-04T04:14:34;25.63;;;13.10;;
3941;SDS011;1985;48.592;8.850;2023-12-04T04:17:00;24.20;;;11.60;;
3941;SDS011;1985;48.592;8.850;2023-12-04T04:19:25;24.17;;;11.33;;
3941;SDS011;1985;48.592;8.850;2023-12-04T04:21:51;27.83;;;11.83;;
3941;SDS011;1985;48.592;8.850;2023-12-04T04:24:17;24.57;;;11.70;;
3941;SDS011;1985;48.592;8.850;2023-12-04T04:26:42;24.30;;;11.50;;
3941;SDS011;1985;48.592;8.850;2023-12-04T04:29:08;23.30;;;11.50;;
3941;SDS011;1985;48.592;8.850;2023-12-04T04:31:34;24.45;;;11.00;;
3941;SDS011;1985;48.592;8.850;2023-12-04T04:34:00;24.08;;;11.68;;
3941;SDS011;1985;48.592;8.850;2023-12-04T04:36:26;27.30;;;12.43;;
3941;SDS011;1985;48.592;8.850;2023-12-04T04:38:51;26.80;;;11.23;;
3941;SDS011;1985;48.592;8.850;2023-12-04T04:41:17;23.45;;;11.48;;
3941;SDS011;1985;48.592;8.850;2023-12-04T04:43:43;22.77;;;10.80;;
3941;SDS011;1985;48.592;8.850;2023-12-04T04:46:08;23.93;;;11.20;;
3941;SDS011;1985;48.592;8.850;2023-12-04T04:48:34;22.80;;;9.73;;
3941;SDS011;1985;48.592;8.850;2023-12-04T04:51:00;21.20;;;9.90;;
3941;SDS011;1985;48.592;8.850;2023-12-04T04:53:26;22.03;;;11.17;;
3941;SDS011;1985;48.592;8.850;2023-12-04T04:55:51;24.77;;;11.50;;
3941;SDS011;1985;48.592;8.850;2023-12-04T04:58:17;24.30;;;12.00;;
3941;SDS011;1985;48.592;8.850;2023-12-04T05:00:43;34.43;;;16.27;;
3941;SDS011;1985;48.592;8.850;2023-12-04T05:03:09;24.95;;;11.20;;
3941;SDS011;1985;48.592;8.850;2023-12-04T05:05:34;23.60;;;10.32;;
3941;SDS011;1985;48.592;8.850;2023-12-04T05:08:00;21.95;;;10.13;;
3941;SDS011;1985;48.592;8.850;2023-12-04T05:10:26;21.05;;;10.40;;
3941;SDS011;1985;48.592;8.850;2023-12-04T05:12:51;22.45;;;11.23;;
3941;SDS011;1985;48.592;8.850;2023-12-04T05:15:17;21.40;;;10.90;;
3941;SDS011;1985;48.592;8.850;2023-12-04T05:17:45;23.77;;;10.47;;
3941;SDS011;1985;48.592;8.850;2023-12-04T05:20:11;24.17;;;11.10;;
3941;SDS011;1985;48.592;8.850;2023-12-04T05:22:36;24.38;;;11.23;;
3941;SDS011;1985;48.592;8.850;2023-12-04T05:25:02;26.85;;;11.93;;
3941;SDS011;1985;48.592;8.850;2023-12-04T05:27:28;24.70;;;12.30;;
3941;SDS011;1985;48.592;8.850;2023-12-04T05:29:53;24.85;;;11.85;;
3941;SDS011;1985;48.592;8.850;2023-12-04T05:32:21;20.63;;;10.03;;
3941;SDS011;1985;48.592;8.850;2023-12-04T05:34:46;23.63;;;11.10;;
3941;SDS011;1985;48.592;8.850;2023-12-04T05:37:12;22.33;;;11.13;;
3941;SDS011;1985;48.592;8.850;2023-12-04T05:39:38;25.03;;;11.00;;
3941;SDS011;1985;48.592;8.850;2023-12-04T05:42:03;22.55;;;11.00;;
3941;SDS011;1985;48.592;8.850;2023-12-04T05:44:30;21.55;;;10.30;;
3941;SDS011;1985;48.592;8.850;2023-12-04T05:46:57;22.52;;;10.20;;
3941;SDS011;1985;48.592;8.850;2023-12-04T05:49:22;24.60;;;10.35;;
3941;SDS011;1985;48.592;8.850;2023-12-04T05:51:48;26.17;;;10.05;;
3941;SDS011;1985;48.592;8.850;2023-12-04T05:54:13;21.23;;;11.27;;
3941;SDS011;1985;48.592;8.850;2023-12-04T05:56:39;23.10;;;10.60;;
3941;SDS011;1985;48.592;8.850;2023-12-04T05:59:05;25.30;;;11.75;;
3941;SDS011;1985;48.592;8.850;2023-12-04T06:01:30;25.33;;;12.07;;
3941;SDS011;1985;48.592;8.850;2023-12-04T06:03:56;24.20;;;12.47;;
3941;SDS011;1985;48.592;8.850;2023-12-04T06:06:21;25.53;;;11.00;;
3941;SDS011;1985;48.592;8.850;2023-12-04T06:08:47;24.83;;;11.43;;
3941;SDS011;1985;48.592;8.850;2023-12-04T06:11:13;30.67;;;11.83;;
3941;SDS011;1985;48.592;8.850;2023-12-04T06:13:39;23.67;;;11.40;;
3941;SDS011;1985;48.592;8.850;2023-12-04T06:16:04;27.80;;;12.23;;
3941;SDS011;1985;48.592;8.850;2023-12-04T06:18:30;25.30;;;12.00;;
3941;SDS011;1985;48.592;8.850;2023-12-04T06:20:56;22.02;;;11.18;;
3941;SDS011;1985;48.592;8.850;2023-12-04T06:23:22;23.85;;;10.63;;
3941;SDS011;1985;48.592;8.850;2023-12-04T06:25:48;25.25;;;12.00;;
3941;SDS011;1985;48.592;8.850;2023-12-04T06:28:14;24.48;;;11.32;;
3941;SDS011;1985;48.592;8.850;2023-12-04T06:30:40;23.53;;;11.50;;
3941;SDS011;1985;48.592;8.850;2023-12-04T06:33:06;27.05;;;11.90;;
3941;SDS011;1985;48.592;8.850;2023-12-04T06:35:33;28.73;;;13.63;;
3941;SDS011;1985;48.592;8.850;2023-12-04T06:37:59;27.05;;;12.40;;
3941;SDS011;1985;48.592;8.850;2023-12-04T06:40:30;26.10;;;12.30;;
3941;SDS011;1985;48.592;8.850;2023-12-04T06:42:57;26.65;;;12.43;;
3941;SDS011;1985;48.592;8.850;2023-12-04T06:45:23;24.90;;;11.90;;
3941;SDS011;1985;48.592;8.850;2023-12-04T06:47:50;28.58;;;12.45;;
3941;SDS011;1985;48.592;8.850;2023-12-04T06:50:16;24.50;;;12.13;;
3941;SDS011;1985;48.592;8.850;2023-12-04T06:52:42;23.63;;;12.40;;
3941;SDS011;1985;48.592;8.850;2023-12-04T06:55:08;27.02;;;12.98;;
3941;SDS011;1985;48.592;8.850;2023-12-04T06:57:33;32.58;;;14.13;;
3941;SDS011;1985;48.592;8.850;2023-12-04T06:59:59;25.15;;;12.43;;
3941;SDS011;1985;48.592;8.850;2023-12-04T07:02:25;40.45;;;18.25;;
3941;SDS011;1985;48.592;8.850;2023-12-04T07:04:51;42.95;;;20.13;;
3941;SDS011;1985;48.592;8.850;2023-12-04T07:07:16;45.90;;;19.38;;
3941;SDS011;1985;48.592;8.850;2023-12-04T07:09:42;44.65;;;19.25;;
3941;SDS011;1985;48.592;8.850;2023-12-04T07:12:08;39.35;;;16.80;;
3941;SDS011;1985;48.592;8.850;2023-12-04T07:14:33;74.63;;;28.60;;
3941;SDS011;1985;48.592;8.850;2023-12-04T07:16:59;60.80;;;24.10;;
3941;SDS011;1985;48.592;8.850;2023-12-04T07:19:25;76.70;;;30.98;;
3941;SDS011;1985;48.592;8.850;2023-12-04T07:21:52;90.10;;;35.50;;
3941;SDS011;1985;48.592;8.850;2023-12-04T07:24:17;34.25;;;15.32;;
3941;SDS011;1985;48.592;8.850;2023-12-04T07:26:43;34.03;;;15.38;;
3941;SDS011;1985;48.592;8.850;2023-12-04T07:29:09;48.58;;;21.67;;
3941;SDS011;1985;48.592;8.850;2023-12-04T07:31:35;28.55;;;13.48;;
3941;SDS011;1985;48.592;8.850;2023-12-04T07:34:00;29.20;;;12.07;;
3941;SDS011;1985;48.592;8.850;2023-12-04T07:36:30;25.75;;;12.30;;
3941;SDS011;1985;48.592;8.850;2023-12-04T07:38:55;28.17;;;13.43;;
3941;SDS011;1985;48.592;8.850;2023-12-04T07:41:21;30.83;;;15.15;;
3941;SDS011;1985;48.592;8.850;2023-12-04T07:43:47;27.50;;;13.40;;
3941;SDS011;1985;48.592;8.850;2023-12-04T07:46:12;24.25;;;11.90;;
3941;SDS011;1985;48.592;8.850;2023-12-04T07:48:39;28.25;;;13.23;;
3941;SDS011;1985;48.592;8.850;2023-12-04T07:51:05;26.55;;;11.23;;
3941;SDS011;1985;48.592;8.850;2023-12-04T07:53:32;26.02;;;11.65;;
3941;SDS011;1985;48.592;8.850;2023-12-04T07:56:00;23.27;;;11.85;;
3941;SDS011;1985;48.592;8.850;2023-12-04T07:58:28;24.40;;;10.65;;
3941;SDS011;1985;48.592;8.850;2023-12-04T08:00:54;20.20;;;10.20;;
3941;SDS011;1985;48.592;8.850;2023-12-04T08:03:19;24.33;;;11.52;;
3941;SDS011;1985;48.592;8.850;2023-12-04T08:05:45;24.05;;;11.30;;
3941;SDS011;1985;48.592;8.850;2023-12-04T08:08:11;23.58;;;10.50;;
3941;SDS011;1985;48.592;8.850;2023-12-04T08:10:36;22.02;;;10.77;;
3941;SDS011;1985;48.592;8.850;2023-12-04T08:13:02;25.23;;;11.33;;
3941;SDS011;1985;48.592;8.850;2023-12-04T08:15:28;22.13;;;10.83;;
3941;SDS011;1985;48.592;8.850;2023-12-04T08:17:54;23.52;;;10.52;;
3941;SDS011;1985;48.592;8.850;2023-12-04T08:20:20;25.23;;;11.52;;
3941;SDS011;1985;48.592;8.850;2023-12-04T08:22:47;24.67;;;11.50;;
3941;SDS011;1985;48.592;8.850;2023-12-04T08:25:13;21.58;;;10.80;;
3941;SDS011;1985;48.592;8.850;2023-12-04T08:27:39;23.70;;;10.75;;
3941;SDS011;1985;48.592;8.850;2023-12-04T08:30:05;26.00;;;12.07;;
3941;SDS011;1985;48.592;8.850;2023-12-04T08:32:31;23.83;;;11.38;;
3941;SDS011;1985;48.592;8.850;2023-12-04T08:34:57;23.52;;;10.90;;
3941;SDS011;1985;48.592;8.850;2023-12-04T08:37:22;26.10;;;11.60;;
3941;SDS011;1985;48.592;8.850;2023-12-04T08:39:48;22.77;;;11.52;;
3941;SDS011;1985;48.592;8.850;2023-12-04T08:42:14;24.60;;;11.98;;
3941;SDS011;1985;48.592;8.850;2023-12-04T08:44:39;24.45;;;11.90;;
3941;SDS011;1985;48.592;8.850;2023-12-04T08:47:05;24.40;;;11.27;;
3941;SDS011;1985;48.592;8.850;2023-12-04T08:49:31;24.40;;;11.20;;
3941;SDS011;1985;48.592;8.850;2023-12-04T08:51:57;24.17;;;11.18;;
3941;SDS011;1985;48.592;8.850;2023-12-04T08:54:24;25.63;;;11.05;;
3941;SDS011;1985;48.592;8.850;2023-12-04T08:56:49;23.50;;;12.40;;
3941;SDS011;1985;48.592;8.850;2023-12-04T08:59:15;23.88;;;11.38;;
3941;SDS011;1985;48.592;8.850;2023-12-04T09:01:42;22.48;;;11.50;;
3941;SDS011;1985;48.592;8.850;2023-12-04T09:04:08;27.10;;;12.55;;
3941;SDS011;1985;48.592;8.850;2023-12-04T09:06:34;24.60;;;11.85;;
3941;SDS011;1985;48.592;8.850;2023-12-04T09:09:00;24.40;;;11.75;;
3941;SDS011;1985;48.592;8.850;2023-12-04T09:11:27;23.35;;;11.57;;
3941;SDS011;1985;48.592;8.850;2023-12-04T09:13:53;26.73;;;12.45;;
3941;SDS011;1985;48.592;8.850;2023-12-04T09:16:19;23.10;;;11.90;;
3941;SDS011;1985;48.592;8.850;2023-12-04T09:18:45;24.03;;;12.00;;
3941;SDS011;1985;48.592;8.850;2023-12-04T09:21:11;24.98;;;11.52;;
3941;SDS011;1985;48.592;8.850;2023-12-04T09:23:37;27.30;;;14.13;;
3941;SDS011;1985;48.592;8.850;2023-12-04T09:26:02;27.10;;;13.90;;
3941;SDS011;1985;48.592;8.850;2023-12-04T09:28:29;27.60;;;13.00;;
3941;SDS011;1985;48.592;8.850;2023-12-04T09:30:54;27.05;;;14.10;;
3941;SDS011;1985;48.592;8.850;2023-12-04T09:33:20;26.90;;;13.07;;
3941;SDS011;1985;48.592;8.850;2023-12-04T09:35:46;27.50;;;13.60;;
3941;SDS011;1985;48.592;8.850;2023-12-04T09:38:11;24.43;;;11.80;;
3941;SDS011;1985;48.592;8.850;2023-12-04T09:40:37;23.88;;;13.23;;
3941;SDS011;1985;48.592;8.850;2023-12-04T09:43:03;26.05;;;12.63;;
3941;SDS011;1985;48.592;8.850;2023-12-04T09:45:30;26.50;;;12.63;;
3941;SDS011;1985;48.592;8.850;2023-12-04T09:47:57;27.50;;;12.48;;
3941;SDS011;1985;48.592;8.850;2023-12-04T09:50:24;27.15;;;13.55;;
3941;SDS011;1985;48.592;8.850;2023-12-04T09:52:50;27.00;;;13.07;;
3941;SDS011;1985;48.592;8.850;2023-12-04T09:55:17;25.27;;;12.18;;
3941;SDS011;1985;48.592;8.850;2023-12-04T09:57:43;28.37;;;12.90;;
3941;SDS011;1985;48.592;8.850;2023-12-04T10:00:14;26.23;;;11.87;;
3941;SDS011;1985;48.592;8.850;2023-12-04T10:02:40;23.60;;;12.13;;
3941;SDS011;1985;48.592;8.850;2023-12-04T10:05:07;23.05;;;11.63;;
3941;SDS011;1985;48.592;8.850;2023-12-04T10:07:34;26.20;;;12.27;;
3941;SDS011;1985;48.592;8.850;2023-12-04T10:10:01;25.83;;;12.50;;
3941;SDS011;1985;48.592;8.850;2023-12-04T10:12:30;24.77;;;13.00;;
3941;SDS011;1985;48.592;8.850;2023-12-04T10:17:39;26.63;;;11.90;;
3941;SDS011;1985;48.592;8.850;2023-12-04T10:20:09;26.10;;;12.87;;
3941;SDS011;1985;48.592;8.850;2023-12-04T10:23:01;24.80;;;12.68;;
3941;SDS011;1985;48.592;8.850;2023-12-04T10:25:28;28.25;;;13.32;;
3941;SDS011;1985;48.592;8.850;2023-12-04T10:28:05;24.00;;;13.07;;
3941;SDS011;1985;48.592;8.850;2023-12-04T10:30:33;26.30;;;13.02;;
3941;SDS011;1985;48.592;8.850;2023-12-04T10:33:01;25.17;;;12.32;;
3941;SDS011;1985;48.592;8.850;2023-12-04T10:35:28;29.27;;;13.13;;
3941;SDS011;1985;48.592;8.850;2023-12-04T10:37:57;24.37;;;12.47;;
3941;SDS011;1985;48.592;8.850;2023-12-04T10:40:27;28.20;;;13.05;;
3941;SDS011;1985;48.592;8.850;2023-12-04T10:45:39;25.65;;;12.13;;
3941;SDS011;1985;48.592;8.850;2023-12-04T10:48:06;26.75;;;13.00;;
3941;SDS011;1985;48.592;8.850;2023-12-04T10:50:36;31.67;;;14.47;;
3941;SDS011;1985;48.592;8.850;2023-12-04T10:53:10;24.95;;;12.95;;
3941;SDS011;1985;48.592;8.850;2023-12-04T10:55:37;25.00;;;12.98;;
3941;SDS011;1985;48.592;8.850;2023-12-04T10:58:05;27.00;;;12.77;;
3941;SDS011;1985;48.592;8.850;2023-12-04T11:00:40;27.35;;;13.23;;
3941;SDS011;1985;48.592;8.850;2023-12-04T11:03:13;27.70;;;12.48;;
3941;SDS011;1985;48.592;8.850;2023-12-04T11:05:45;24.23;;;12.23;;
3941;SDS011;1985;48.592;8.850;2023-12-04T11:08:14;24.85;;;12.68;;
3941;SDS011;1985;48.592;8.850;2023-12-04T11:10:46;26.30;;;11.70;;
3941;SDS011;1985;48.592;8.850;2023-12-04T11:13:33;26.58;;;12.50;;
3941;SDS011;1985;48.592;8.850;2023-12-04T11:16:27;29.52;;;11.85;;
3941;SDS011;1985;48.592;8.850;2023-12-04T11:19:02;27.23;;;13.60;;
3941;SDS011;1985;48.592;8.850;2023-12-04T11:21:49;24.53;;;12.00;;
3941;SDS011;1985;48.592;8.850;2023-12-04T11:24:17;27.05;;;12.75;;
3941;SDS011;1985;48.592;8.850;2023-12-04T11:26:43;25.83;;;12.97;;
3941;SDS011;1985;48.592;8.850;2023-12-04T11:29:10;24.65;;;12.35;;
3941;SDS011;1985;48.592;8.850;2023-12-04T11:31:39;30.08;;;13.25;;
3941;SDS011;1985;48.592;8.850;2023-12-04T11:34:04;23.80;;;12.55;;
3941;SDS011;1985;48.592;8.850;2023-12-04T11:36:33;24.35;;;12.07;;
3941;SDS011;1985;48.592;8.850;2023-12-04T11:38:59;27.77;;;12.90;;
3941;SDS011;1985;48.592;8.850;2023-12-04T11:41:25;23.58;;;11.30;;
3941;SDS011;1985;48.592;8.850;2023-12-04T11:43:51;24.20;;;12.00;;
3941;SDS011;1985;48.592;8.850;2023-12-04T11:46:20;25.58;;;14.73;;
3941;SDS011;1985;48.592;8.850;2023-12-04T11:48:55;26.25;;;12.57;;
3941;SDS011;1985;48.592;8.850;2023-12-04T11:54:14;24.98;;;12.13;;
3941;SDS011;1985;48.592;8.850;2023-12-04T11:59:22;23.98;;;11.82;;
3941;SDS011;1985;48.592;8.850;2023-12-04T12:01:50;23.00;;;11.60;;
3941;SDS011;1985;48.592;8.850;2023-12-04T12:04:17;26.67;;;11.77;;
3941;SDS011;1985;48.592;8.850;2023-12-04T12:06:43;23.70;;;11.52;;
3941;SDS011;1985;48.592;8.850;2023-12-04T12:09:09;23.93;;;11.17;;
3941;SDS011;1985;48.592;8.850;2023-12-04T12:11:36;27.50;;;11.93;;
3941;SDS011;1985;48.592;8.850;2023-12-04T12:14:02;26.60;;;11.87;;
3941;SDS011;1985;48.592;8.850;2023-12-04T12:16:30;23.77;;;12.18;;
3941;SDS011;1985;48.592;8.850;2023-12-04T12:18:57;25.30;;;11.95;;
3941;SDS011;1985;48.592;8.850;2023-12-04T12:21:23;22.63;;;11.13;;
3941;SDS011;1985;48.592;8.850;2023-12-04T12:23:48;23.75;;;11.50;;
3941;SDS011;1985;48.592;8.850;2023-12-04T12:26:14;22.93;;;11.30;;
3941;SDS011;1985;48.592;8.850;2023-12-04T12:28:40;22.63;;;11.37;;
3941;SDS011;1985;48.592;8.850;2023-12-04T12:31:05;22.63;;;11.50;;
3941;SDS011;1985;48.592;8.850;2023-12-04T12:33:31;21.75;;;11.32;;
3941;SDS011;1985;48.592;8.850;2023-12-04T12:35:57;25.45;;;11.55;;
3941;SDS011;1985;48.592;8.850;2023-12-04T12:38:24;25.70;;;12.00;;
3941;SDS011;1985;48.592;8.850;2023-12-04T12:40:50;24.13;;;12.03;;
3941;SDS011;1985;48.592;8.850;2023-12-04T12:43:16;25.60;;;11.50;;
3941;SDS011;1985;48.592;8.850;2023-12-04T12:45:46;22.88;;;10.90;;
3941;SDS011;1985;48.592;8.850;2023-12-04T12:48:15;24.37;;;12.03;;
3941;SDS011;1985;48.592;8.850;2023-12-04T12:50:48;23.40;;;11.63;;
3941;SDS011;1985;48.592;8.850;2023-12-04T12:53:14;23.45;;;11.23;;
3941;SDS011;1985;48.592;8.850;2023-12-04T12:55:40;25.17;;;12.60;;
3941;SDS011;1985;48.592;8.850;2023-12-04T12:58:08;25.83;;;12.77;;
3941;SDS011;1985;48.592;8.850;2023-12-04T13:00:45;22.77;;;11.23;;
3941;SDS011;1985;48.592;8.850;2023-12-04T13:03:15;27.77;;;11.98;;
3941;SDS011;1985;48.592;8.850;2023-12-04T13:05:42;22.55;;;11.55;;
3941;SDS011;1985;48.592;8.850;2023-12-04T13:08:08;27.15;;;13.15;;
3941;SDS011;1985;48.592;8.850;2023-12-04T13:10:36;25.52;;;13.95;;
3941;SDS011;1985;48.592;8.850;2023-12-04T13:13:02;26.40;;;13.20;;
3941;SDS011;1985;48.592;8.850;2023-12-04T13:15:28;24.53;;;13.00;;
3941;SDS011;1985;48.592;8.850;2023-12-04T13:17:54;30.20;;;13.10;;
3941;SDS011;1985;48.592;8.850;2023-12-04T13:20:19;23.43;;;12.37;;
3941;SDS011;1985;48.592;8.850;2023-12-04T13:22:45;26.67;;;13.95;;
3941;SDS011;1985;48.592;8.850;2023-12-04T13:25:11;26.77;;;13.27;;
3941;SDS011;1985;48.592;8.850;2023-12-04T13:27:37;26.70;;;12.70;;
3941;SDS011;1985;48.592;8.850;2023-12-04T13:30:06;26.17;;;12.43;;
3941;SDS011;1985;48.592;8.850;2023-12-04T13:32:36;26.17;;;12.23;;
3941;SDS011;1985;48.592;8.850;2023-12-04T13:35:02;29.08;;;12.68;;
3941;SDS011;1985;48.592;8.850;2023-12-04T13:37:30;25.25;;;12.40;;
3941;SDS011;1985;48.592;8.850;2023-12-04T13:39:55;28.02;;;13.10;;
3941;SDS011;1985;48.592;8.850;2023-12-04T13:42:31;28.90;;;13.25;;
3941;SDS011;1985;48.592;8.850;2023-12-04T13:45:16;30.33;;;14.05;;
3941;SDS011;1985;48.592;8.850;2023-12-04T13:47:42;27.13;;;13.07;;
3941;SDS011;1985;48.592;8.850;2023-12-04T13:50:08;29.65;;;13.93;;
3941;SDS011;1985;48.592;8.850;2023-12-04T13:52:35;31.70;;;13.80;;
3941;SDS011;1985;48.592;8.850;2023-12-04T13:55:01;28.33;;;13.73;;
3941;SDS011;1985;48.592;8.850;2023-12-04T13:57:33;27.67;;;13.57;;
3941;SDS011;1985;48.592;8.850;2023-12-04T14:00:09;27.47;;;14.40;;
3941;SDS011;1985;48.592;8.850;2023-12-04T14:02:35;27.15;;;13.95;;
3941;SDS011;1985;48.592;8.850;2023-12-04T14:05:02;26.88;;;13.45;;
3941;SDS011;1985;48.592;8.850;2023-12-04T14:07:28;27.95;;;13.30;;
3941;SDS011;1985;48.592;8.850;2023-12-04T14:09:54;31.27;;;14.50;;
3941;SDS011;1985;48.592;8.850;2023-12-04T14:12:20;27.98;;;12.77;;
3941;SDS011;1985;48.592;8.850;2023-12-04T14:14:46;27.30;;;12.90;;
3941;SDS011;1985;48.592;8.850;2023-12-04T14:17:13;25.73;;;13.48;;
3941;SDS011;1985;48.592;8.850;2023-12-04T14:19:39;30.20;;;15.00;;
3941;SDS011;1985;48.592;8.850;2023-12-04T14:22:07;27.37;;;12.97;;
3941;SDS011;1985;48.592;8.850;2023-12-04T14:24:32;30.63;;;14.07;;
3941;SDS011;1985;48.592;8.850;2023-12-04T14:27:00;33.28;;;15.25;;
3941;SDS011;1985;48.592;8.850;2023-12-04T14:29:26;27.60;;;14.77;;
3941;SDS011;1985;48.592;8.850;2023-12-04T14:31:51;31.02;;;15.50;;
3941;SDS011;1985;48.592;8.850;2023-12-04T14:34:17;30.55;;;14.90;;
3941;SDS011;1985;48.592;8.850;2023-12-04T14:36:43;29.27;;;15.23;;
3941;SDS011;1985;48.592;8.850;2023-12-04T14:39:09;31.33;;;15.83;;
3941;SDS011;1985;48.592;8.850;2023-12-04T14:41:37;30.33;;;14.75;;
3941;SDS011;1985;48.592;8.850;2023-12-04T14:44:03;29.83;;;14.35;;
3941;SDS011;1985;48.592;8.850;2023-12-04T14:46:28;29.83;;;14.38;;
3941;SDS011;1985;48.592;8.850;2023-12-04T14:48:54;32.63;;;15.17;;
3941;SDS011;1985;48.592;8.850;2023-12-04T14:51:20;32.30;;;15.30;;
3941;SDS011;1985;48.592;8.850;2023-12-04T14:53:45;31.88;;;15.50;;
3941;SDS011;1985;48.592;8.850;2023-12-04T14:56:40;31.40;;;14.57;;
3941;SDS011;1985;48.592;8.850;2023-12-04T14:59:25;29.33;;;15.10;;